sensor_id;sensor_type;location;lat;lon;timestamp;pressure;altitude;pressure_sealevel;temperature;humidity
40570;BME280;26270;34.428;-119.710;2022-09-25T00:01:23;101141.33;;;29.02;33.24
40570;BME280;26270;34.428;-119.710;2022-09-25T00:03:51;101141.84;;;28.87;33.19
40570;BME280;26270;34.428;-119.710;2022-09-25T00:06:20;101146.02;;;28.86;34.36
40570;BME280;26270;34.428;-119.710;2022-09-25T00:08:49;101146.66;;;28.69;34.41
40570;BME280;26270;34.428;-119.710;2022-09-25T00:11:19;101149.21;;;28.48;35.55
40570;BME280;26270;34.428;-119.710;2022-09-25T00:13:48;101147.41;;;28.75;36.04
40570;BME280;26270;34.428;-119.710;2022-09-25T00:16:19;101148.05;;;28.62;36.61
40570;BME280;26270;34.428;-119.710;2022-09-25T00:18:48;101145.45;;;28.47;36.97
40570;BME280;26270;34.428;-119.710;2022-09-25T00:21:16;101144.65;;;28.60;36.78
40570;BME280;26270;34.428;-119.710;2022-09-25T00:23:46;101141.11;;;28.52;36.53
40570;BME280;26270;34.428;-119.710;2022-09-25T00:26:15;101141.91;;;27.97;36.82
40570;BME280;26270;34.428;-119.710;2022-09-25T00:28:43;101145.36;;;28.22;35.96
40570;BME280;26270;34.428;-119.710;2022-09-25T00:31:18;101141.97;;;28.03;34.89
40570;BME280;26270;34.428;-119.710;2022-09-25T00:33:47;101140.57;;;27.96;34.08
40570;BME280;26270;34.428;-119.710;2022-09-25T00:36:14;101140.27;;;27.84;32.86
40570;BME280;26270;34.428;-119.710;2022-09-25T00:38:43;101138.30;;;27.71;32.30
40570;BME280;26270;34.428;-119.710;2022-09-25T00:41:11;101136.61;;;27.67;32.40
40570;BME280;26270;34.428;-119.710;2022-09-25T00:43:42;101135.51;;;27.42;31.79
40570;BME280;26270;34.428;-119.710;2022-09-25T00:46:13;101135.58;;;27.41;31.98
40570;BME280;26270;34.428;-119.710;2022-09-25T00:48:48;101133.82;;;27.28;31.65
40570;BME280;26270;34.428;-119.710;2022-09-25T00:51:19;101134.58;;;26.98;31.78
40570;BME280;26270;34.428;-119.710;2022-09-25T00:53:50;101135.92;;;27.21;32.52
40570;BME280;26270;34.428;-119.710;2022-09-25T00:56:18;101133.35;;;27.19;32.52
40570;BME280;26270;34.428;-119.710;2022-09-25T00:58:47;101130.85;;;27.22;33.04
40570;BME280;26270;34.428;-119.710;2022-09-25T01:01:14;101128.44;;;27.08;33.20
40570;BME280;26270;34.428;-119.710;2022-09-25T01:03:43;101128.06;;;27.30;33.41
40570;BME280;26270;34.428;-119.710;2022-09-25T01:06:12;101129.80;;;27.37;33.99
40570;BME280;26270;34.428;-119.710;2022-09-25T01:08:41;101130.87;;;27.35;33.89
40570;BME280;26270;34.428;-119.710;2022-09-25T01:11:10;101131.37;;;27.02;34.67
40570;BME280;26270;34.428;-119.710;2022-09-25T01:13:39;101132.76;;;27.02;34.75
40570;BME280;26270;34.428;-119.710;2022-09-25T01:16:10;101133.73;;;26.99;35.29
40570;BME280;26270;34.428;-119.710;2022-09-25T01:18:50;101136.88;;;27.13;36.79
40570;BME280;26270;34.428;-119.710;2022-09-25T01:21:30;101134.99;;;26.94;37.57
40570;BME280;26270;34.428;-119.710;2022-09-25T01:25:08;101139.42;;;26.77;39.53
40570;BME280;26270;34.428;-119.710;2022-09-25T01:27:50;101145.65;;;26.69;42.82
40570;BME280;26270;34.428;-119.710;2022-09-25T01:30:28;101144.45;;;26.40;45.10
40570;BME280;26270;34.428;-119.710;2022-09-25T01:33:05;101151.16;;;26.23;46.13
40570;BME280;26270;34.428;-119.710;2022-09-25T01:35:41;101155.74;;;26.06;47.04
40570;BME280;26270;34.428;-119.710;2022-09-25T01:38:21;101159.37;;;25.73;47.37
40570;BME280;26270;34.428;-119.710;2022-09-25T01:40:57;101158.87;;;25.56;47.52
40570;BME280;26270;34.428;-119.710;2022-09-25T01:43:35;101157.14;;;25.68;47.65
40570;BME280;26270;34.428;-119.710;2022-09-25T01:46:09;101158.93;;;25.40;47.89
40570;BME280;26270;34.428;-119.710;2022-09-25T01:48:40;101158.14;;;25.47;48.71
40570;BME280;26270;34.428;-119.710;2022-09-25T01:51:14;101159.72;;;25.20;49.53
40570;BME280;26270;34.428;-119.710;2022-09-25T01:53:47;101161.29;;;25.30;49.07
40570;BME280;26270;34.428;-119.710;2022-09-25T01:56:19;101159.46;;;25.22;47.99
40570;BME280;26270;34.428;-119.710;2022-09-25T01:58:53;101155.08;;;25.04;47.94
40570;BME280;26270;34.428;-119.710;2022-09-25T02:01:26;101156.24;;;25.11;48.38
40570;BME280;26270;34.428;-119.710;2022-09-25T02:03:59;101159.62;;;24.91;49.40
40570;BME280;26270;34.428;-119.710;2022-09-25T02:06:31;101155.19;;;25.07;49.46
40570;BME280;26270;34.428;-119.710;2022-09-25T02:09:03;101152.48;;;24.87;50.28
40570;BME280;26270;34.428;-119.710;2022-09-25T02:11:38;101154.43;;;24.83;50.66
40570;BME280;26270;34.428;-119.710;2022-09-25T02:14:12;101156.72;;;24.91;50.83
40570;BME280;26270;34.428;-119.710;2022-09-25T02:16:42;101156.98;;;24.87;50.98
40570;BME280;26270;34.428;-119.710;2022-09-25T02:19:16;101156.75;;;24.97;50.26
40570;BME280;26270;34.428;-119.710;2022-09-25T02:21:51;101157.64;;;25.36;50.17
40570;BME280;26270;34.428;-119.710;2022-09-25T02:24:30;101163.27;;;25.33;50.46
40570;BME280;26270;34.428;-119.710;2022-09-25T02:26:59;101162.11;;;25.17;50.64
40570;BME280;26270;34.428;-119.710;2022-09-25T02:29:29;101165.17;;;25.22;50.66
40570;BME280;26270;34.428;-119.710;2022-09-25T02:32:00;101169.58;;;24.99;51.94
40570;BME280;26270;34.428;-119.710;2022-09-25T02:34:30;101168.69;;;25.12;51.26
40570;BME280;26270;34.428;-119.710;2022-09-25T02:36:59;101170.49;;;24.97;51.51
40570;BME280;26270;34.428;-119.710;2022-09-25T02:39:29;101176.70;;;25.00;51.63
40570;BME280;26270;34.428;-119.710;2022-09-25T02:45:06;101182.49;;;24.96;51.99
40570;BME280;26270;34.428;-119.710;2022-09-25T02:47:46;101183.66;;;25.01;52.17
40570;BME280;26270;34.428;-119.710;2022-09-25T02:50:23;101190.37;;;24.93;52.48
40570;BME280;26270;34.428;-119.710;2022-09-25T02:52:59;101197.93;;;24.79;53.24
40570;BME280;26270;34.428;-119.710;2022-09-25T02:55:36;101199.14;;;24.68;53.22
40570;BME280;26270;34.428;-119.710;2022-09-25T02:58:13;101204.17;;;24.56;54.18
40570;BME280;26270;34.428;-119.710;2022-09-25T03:00:46;101209.25;;;24.46;53.84
40570;BME280;26270;34.428;-119.710;2022-09-25T03:03:18;101216.46;;;24.68;53.61
40570;BME280;26270;34.428;-119.710;2022-09-25T03:05:48;101219.69;;;24.58;54.14
40570;BME280;26270;34.428;-119.710;2022-09-25T03:08:19;101226.69;;;24.42;54.55
40570;BME280;26270;34.428;-119.710;2022-09-25T03:10:48;101227.75;;;24.37;54.61
40570;BME280;26270;34.428;-119.710;2022-09-25T03:13:19;101230.54;;;24.43;55.10
40570;BME280;26270;34.428;-119.710;2022-09-25T03:15:51;101225.87;;;24.32;54.99
40570;BME280;26270;34.428;-119.710;2022-09-25T03:18:21;101227.77;;;24.59;54.94
40570;BME280;26270;34.428;-119.710;2022-09-25T03:20:50;101231.04;;;24.36;55.40
40570;BME280;26270;34.428;-119.710;2022-09-25T03:23:18;101235.97;;;24.32;55.19
40570;BME280;26270;34.428;-119.710;2022-09-25T03:25:47;101239.97;;;24.30;55.69
40570;BME280;26270;34.428;-119.710;2022-09-25T03:28:15;101244.62;;;24.29;55.44
40570;BME280;26270;34.428;-119.710;2022-09-25T03:30:43;101247.16;;;24.05;56.43
40570;BME280;26270;34.428;-119.710;2022-09-25T03:33:21;101248.18;;;24.23;56.20
40570;BME280;26270;34.428;-119.710;2022-09-25T03:36:00;101250.29;;;24.26;55.75
40570;BME280;26270;34.428;-119.710;2022-09-25T03:38:29;101251.19;;;23.95;56.48
40570;BME280;26270;34.428;-119.710;2022-09-25T03:40:57;101253.96;;;24.41;55.73
40570;BME280;26270;34.428;-119.710;2022-09-25T03:43:25;101254.60;;;24.17;56.02
40570;BME280;26270;34.428;-119.710;2022-09-25T03:45:53;101254.67;;;24.15;55.85
40570;BME280;26270;34.428;-119.710;2022-09-25T03:48:21;101254.28;;;23.94;56.50
40570;BME280;26270;34.428;-119.710;2022-09-25T03:50:49;101254.08;;;24.21;56.33
40570;BME280;26270;34.428;-119.710;2022-09-25T03:53:18;101257.31;;;24.20;56.00
40570;BME280;26270;34.428;-119.710;2022-09-25T03:55:47;101259.64;;;24.12;56.50
40570;BME280;26270;34.428;-119.710;2022-09-25T03:58:15;101260.25;;;24.07;56.88
40570;BME280;26270;34.428;-119.710;2022-09-25T04:03:19;101259.90;;;24.12;57.19
40570;BME280;26270;34.428;-119.710;2022-09-25T04:05:47;101260.93;;;24.13;57.47
40570;BME280;26270;34.428;-119.710;2022-09-25T04:08:16;101260.62;;;24.17;57.18
40570;BME280;26270;34.428;-119.710;2022-09-25T04:10:44;101261.17;;;24.02;57.82
40570;BME280;26270;34.428;-119.710;2022-09-25T04:13:12;101259.97;;;23.94;57.76
40570;BME280;26270;34.428;-119.710;2022-09-25T04:15:41;101261.48;;;24.09;57.37
40570;BME280;26270;34.428;-119.710;2022-09-25T04:18:09;101262.15;;;23.88;57.77
40570;BME280;26270;34.428;-119.710;2022-09-25T04:20:37;101261.31;;;24.14;57.54
40570;BME280;26270;34.428;-119.710;2022-09-25T04:23:06;101262.82;;;24.06;58.05
40570;BME280;26270;34.428;-119.710;2022-09-25T04:25:33;101264.31;;;24.04;57.67
40570;BME280;26270;34.428;-119.710;2022-09-25T04:28:02;101265.87;;;24.07;58.11
40570;BME280;26270;34.428;-119.710;2022-09-25T04:30:30;101267.50;;;24.06;58.21
40570;BME280;26270;34.428;-119.710;2022-09-25T04:32:59;101270.38;;;23.91;58.68
40570;BME280;26270;34.428;-119.710;2022-09-25T04:35:27;101270.67;;;23.95;58.34
40570;BME280;26270;34.428;-119.710;2022-09-25T04:37:55;101271.06;;;24.02;58.43
40570;BME280;26270;34.428;-119.710;2022-09-25T04:40:23;101272.46;;;24.03;58.36
40570;BME280;26270;34.428;-119.710;2022-09-25T04:42:55;101273.52;;;23.90;58.92
40570;BME280;26270;34.428;-119.710;2022-09-25T04:45:23;101276.32;;;23.78;59.04
40570;BME280;26270;34.428;-119.710;2022-09-25T04:47:52;101277.47;;;23.70;59.09
40570;BME280;26270;34.428;-119.710;2022-09-25T04:50:20;101282.20;;;23.83;59.18
40570;BME280;26270;34.428;-119.710;2022-09-25T04:52:49;101282.89;;;23.93;59.10
40570;BME280;26270;34.428;-119.710;2022-09-25T04:55:18;101287.38;;;23.45;60.12
40570;BME280;26270;34.428;-119.710;2022-09-25T04:57:50;101281.74;;;23.68;59.69
40570;BME280;26270;34.428;-119.710;2022-09-25T05:00:18;101282.39;;;23.68;59.71
40570;BME280;26270;34.428;-119.710;2022-09-25T05:02:47;101281.12;;;23.60;59.88
40570;BME280;26270;34.428;-119.710;2022-09-25T05:05:16;101280.71;;;23.72;59.94
40570;BME280;26270;34.428;-119.710;2022-09-25T05:07:51;101280.76;;;23.67;59.75
40570;BME280;26270;34.428;-119.710;2022-09-25T05:10:19;101280.28;;;23.53;59.66
40570;BME280;26270;34.428;-119.710;2022-09-25T05:12:48;101278.22;;;23.75;59.74
40570;BME280;26270;34.428;-119.710;2022-09-25T05:15:21;101281.73;;;23.75;59.90
40570;BME280;26270;34.428;-119.710;2022-09-25T05:17:49;101282.04;;;23.61;60.07
40570;BME280;26270;34.428;-119.710;2022-09-25T05:20:17;101279.09;;;23.67;59.37
40570;BME280;26270;34.428;-119.710;2022-09-25T05:22:46;101280.13;;;23.64;60.04
40570;BME280;26270;34.428;-119.710;2022-09-25T05:25:14;101277.79;;;23.55;59.90
40570;BME280;26270;34.428;-119.710;2022-09-25T05:27:42;101276.51;;;23.71;59.86
40570;BME280;26270;34.428;-119.710;2022-09-25T05:30:11;101278.88;;;23.73;59.85
40570;BME280;26270;34.428;-119.710;2022-09-25T05:32:40;101279.78;;;23.55;60.11
40570;BME280;26270;34.428;-119.710;2022-09-25T05:35:13;101281.59;;;23.68;60.15
40570;BME280;26270;34.428;-119.710;2022-09-25T05:37:41;101283.53;;;23.51;60.30
40570;BME280;26270;34.428;-119.710;2022-09-25T05:40:10;101283.79;;;23.53;60.15
40570;BME280;26270;34.428;-119.710;2022-09-25T05:42:38;101284.34;;;23.44;60.56
40570;BME280;26270;34.428;-119.710;2022-09-25T05:45:07;101286.82;;;23.48;60.53
40570;BME280;26270;34.428;-119.710;2022-09-25T05:47:35;101285.03;;;23.47;60.79
40570;BME280;26270;34.428;-119.710;2022-09-25T05:50:04;101283.53;;;23.28;61.27
40570;BME280;26270;34.428;-119.710;2022-09-25T05:52:33;101283.93;;;23.32;61.12
40570;BME280;26270;34.428;-119.710;2022-09-25T05:55:01;101281.66;;;23.28;61.12
40570;BME280;26270;34.428;-119.710;2022-09-25T05:57:30;101283.77;;;23.53;61.07
40570;BME280;26270;34.428;-119.710;2022-09-25T05:59:58;101285.65;;;23.43;60.85
40570;BME280;26270;34.428;-119.710;2022-09-25T06:02:27;101283.90;;;23.61;60.82
40570;BME280;26270;34.428;-119.710;2022-09-25T06:04:55;101281.70;;;23.51;60.90
40570;BME280;26270;34.428;-119.710;2022-09-25T06:07:23;101284.17;;;23.50;61.02
40570;BME280;26270;34.428;-119.710;2022-09-25T06:09:51;101285.48;;;23.48;60.54
40570;BME280;26270;34.428;-119.710;2022-09-25T06:12:20;101286.76;;;23.23;61.02
40570;BME280;26270;34.428;-119.710;2022-09-25T06:14:49;101286.86;;;23.21;61.61
40570;BME280;26270;34.428;-119.710;2022-09-25T06:17:18;101289.92;;;23.30;61.27
40570;BME280;26270;34.428;-119.710;2022-09-25T06:19:47;101290.11;;;23.20;61.40
40570;BME280;26270;34.428;-119.710;2022-09-25T06:22:15;101292.82;;;23.23;61.58
40570;BME280;26270;34.428;-119.710;2022-09-25T06:24:43;101292.21;;;23.25;61.73
40570;BME280;26270;34.428;-119.710;2022-09-25T06:27:11;101292.86;;;23.15;61.61
40570;BME280;26270;34.428;-119.710;2022-09-25T06:29:39;101292.69;;;23.25;61.59
40570;BME280;26270;34.428;-119.710;2022-09-25T06:32:07;101298.35;;;23.18;61.87
40570;BME280;26270;34.428;-119.710;2022-09-25T06:34:35;101300.24;;;23.26;61.37
40570;BME280;26270;34.428;-119.710;2022-09-25T06:37:04;101300.96;;;23.26;61.49
40570;BME280;26270;34.428;-119.710;2022-09-25T06:39:32;101301.79;;;23.22;61.84
40570;BME280;26270;34.428;-119.710;2022-09-25T06:42:00;101299.15;;;23.28;61.56
40570;BME280;26270;34.428;-119.710;2022-09-25T06:44:28;101297.76;;;23.13;61.76
40570;BME280;26270;34.428;-119.710;2022-09-25T06:46:57;101296.01;;;23.13;61.99
40570;BME280;26270;34.428;-119.710;2022-09-25T06:49:25;101295.59;;;23.25;61.62
40570;BME280;26270;34.428;-119.710;2022-09-25T06:51:53;101294.95;;;23.15;61.93
40570;BME280;26270;34.428;-119.710;2022-09-25T06:54:21;101291.08;;;22.99;62.35
40570;BME280;26270;34.428;-119.710;2022-09-25T06:56:50;101287.63;;;23.04;61.93
40570;BME280;26270;34.428;-119.710;2022-09-25T06:59:18;101283.73;;;22.88;62.04
40570;BME280;26270;34.428;-119.710;2022-09-25T07:01:46;101283.57;;;23.17;61.64
40570;BME280;26270;34.428;-119.710;2022-09-25T07:04:14;101285.71;;;22.99;62.16
40570;BME280;26270;34.428;-119.710;2022-09-25T07:06:42;101283.53;;;23.07;61.95
40570;BME280;26270;34.428;-119.710;2022-09-25T07:09:10;101280.41;;;23.06;61.93
40570;BME280;26270;34.428;-119.710;2022-09-25T07:11:39;101284.05;;;22.83;62.60
40570;BME280;26270;34.428;-119.710;2022-09-25T07:14:09;101285.55;;;22.99;62.42
40570;BME280;26270;34.428;-119.710;2022-09-25T07:16:37;101282.31;;;22.97;62.52
40570;BME280;26270;34.428;-119.710;2022-09-25T07:19:05;101279.12;;;22.89;62.54
40570;BME280;26270;34.428;-119.710;2022-09-25T07:21:33;101273.09;;;22.88;62.42
40570;BME280;26270;34.428;-119.710;2022-09-25T07:24:01;101270.04;;;22.88;62.33
40570;BME280;26270;34.428;-119.710;2022-09-25T07:26:30;101272.32;;;22.91;62.72
40570;BME280;26270;34.428;-119.710;2022-09-25T07:29:00;101272.06;;;23.00;62.28
40570;BME280;26270;34.428;-119.710;2022-09-25T07:31:30;101270.83;;;23.06;61.86
40570;BME280;26270;34.428;-119.710;2022-09-25T07:33:59;101270.27;;;22.98;62.34
40570;BME280;26270;34.428;-119.710;2022-09-25T07:36:28;101267.53;;;22.87;62.83
40570;BME280;26270;34.428;-119.710;2022-09-25T07:38:55;101262.19;;;22.83;62.41
40570;BME280;26270;34.428;-119.710;2022-09-25T07:41:24;101257.51;;;22.97;61.77
40570;BME280;26270;34.428;-119.710;2022-09-25T07:43:53;101253.40;;;22.94;62.31
40570;BME280;26270;34.428;-119.710;2022-09-25T07:46:21;101250.28;;;22.87;62.64
40570;BME280;26270;34.428;-119.710;2022-09-25T07:48:50;101249.42;;;22.76;62.86
40570;BME280;26270;34.428;-119.710;2022-09-25T07:51:19;101251.05;;;22.63;63.15
40570;BME280;26270;34.428;-119.710;2022-09-25T07:53:47;101250.35;;;22.89;62.83
40570;BME280;26270;34.428;-119.710;2022-09-25T07:56:16;101253.93;;;22.78;62.93
40570;BME280;26270;34.428;-119.710;2022-09-25T07:58:44;101257.12;;;22.71;63.23
40570;BME280;26270;34.428;-119.710;2022-09-25T08:01:13;101253.88;;;22.66;63.09
40570;BME280;26270;34.428;-119.710;2022-09-25T08:03:41;101255.68;;;22.77;62.84
40570;BME280;26270;34.428;-119.710;2022-09-25T08:06:11;101263.11;;;22.85;62.64
40570;BME280;26270;34.428;-119.710;2022-09-25T08:08:41;101263.71;;;22.88;62.82
40570;BME280;26270;34.428;-119.710;2022-09-25T08:11:11;101265.02;;;22.77;62.89
40570;BME280;26270;34.428;-119.710;2022-09-25T08:13:40;101266.37;;;22.63;63.07
40570;BME280;26270;34.428;-119.710;2022-09-25T08:16:10;101268.92;;;22.81;62.74
40570;BME280;26270;34.428;-119.710;2022-09-25T08:18:39;101266.95;;;22.63;62.94
40570;BME280;26270;34.428;-119.710;2022-09-25T08:21:08;101267.00;;;22.90;62.55
40570;BME280;26270;34.428;-119.710;2022-09-25T08:23:37;101264.43;;;22.75;62.65
40570;BME280;26270;34.428;-119.710;2022-09-25T08:26:05;101263.21;;;22.60;62.77
40570;BME280;26270;34.428;-119.710;2022-09-25T08:28:34;101261.00;;;22.67;62.61
40570;BME280;26270;34.428;-119.710;2022-09-25T08:31:02;101264.45;;;22.76;62.56
40570;BME280;26270;34.428;-119.710;2022-09-25T08:33:30;101263.29;;;22.64;62.79
40570;BME280;26270;34.428;-119.710;2022-09-25T08:35:59;101261.09;;;22.59;62.74
40570;BME280;26270;34.428;-119.710;2022-09-25T08:38:28;101259.71;;;22.45;62.94
40570;BME280;26270;34.428;-119.710;2022-09-25T08:40:59;101259.03;;;22.64;63.23
40570;BME280;26270;34.428;-119.710;2022-09-25T08:43:31;101257.15;;;22.51;63.24
40570;BME280;26270;34.428;-119.710;2022-09-25T08:46:02;101257.65;;;22.48;62.94
40570;BME280;26270;34.428;-119.710;2022-09-25T08:48:34;101258.43;;;22.44;63.05
40570;BME280;26270;34.428;-119.710;2022-09-25T08:51:04;101255.03;;;22.35;63.64
40570;BME280;26270;34.428;-119.710;2022-09-25T08:53:33;101255.27;;;22.52;63.31
40570;BME280;26270;34.428;-119.710;2022-09-25T08:56:03;101260.78;;;22.58;63.58
40570;BME280;26270;34.428;-119.710;2022-09-25T08:58:35;101258.47;;;22.56;63.99
40570;BME280;26270;34.428;-119.710;2022-09-25T09:01:06;101262.31;;;22.55;63.89
40570;BME280;26270;34.428;-119.710;2022-09-25T09:03:43;101265.95;;;22.48;63.86
40570;BME280;26270;34.428;-119.710;2022-09-25T09:06:14;101264.92;;;22.42;64.15
40570;BME280;26270;34.428;-119.710;2022-09-25T09:08:46;101264.30;;;22.41;64.26
40570;BME280;26270;34.428;-119.710;2022-09-25T09:11:18;101264.41;;;22.39;64.33
40570;BME280;26270;34.428;-119.710;2022-09-25T09:13:53;101263.90;;;22.45;64.10
40570;BME280;26270;34.428;-119.710;2022-09-25T09:16:29;101264.71;;;22.34;64.36
40570;BME280;26270;34.428;-119.710;2022-09-25T09:19:02;101264.71;;;22.41;64.09
40570;BME280;26270;34.428;-119.710;2022-09-25T09:21:34;101264.70;;;22.33;64.30
40570;BME280;26270;34.428;-119.710;2022-09-25T09:24:09;101264.06;;;22.32;64.28
40570;BME280;26270;34.428;-119.710;2022-09-25T09:26:59;101266.23;;;22.37;63.94
40570;BME280;26270;34.428;-119.710;2022-09-25T09:29:43;101266.92;;;22.39;64.51
40570;BME280;26270;34.428;-119.710;2022-09-25T09:32:25;101263.32;;;22.31;64.41
40570;BME280;26270;34.428;-119.710;2022-09-25T09:35:05;101264.14;;;22.27;64.19
40570;BME280;26270;34.428;-119.710;2022-09-25T09:37:46;101265.67;;;22.28;64.64
40570;BME280;26270;34.428;-119.710;2022-09-25T09:40:24;101262.69;;;22.28;64.60
40570;BME280;26270;34.428;-119.710;2022-09-25T09:43:01;101261.07;;;22.30;64.62
40570;BME280;26270;34.428;-119.710;2022-09-25T09:45:40;101262.73;;;22.50;64.19
40570;BME280;26270;34.428;-119.710;2022-09-25T09:48:16;101262.55;;;22.42;64.38
40570;BME280;26270;34.428;-119.710;2022-09-25T09:50:49;101263.15;;;22.31;64.83
40570;BME280;26270;34.428;-119.710;2022-09-25T09:53:27;101260.56;;;22.28;64.79
40570;BME280;26270;34.428;-119.710;2022-09-25T09:56:00;101262.02;;;22.33;64.42
40570;BME280;26270;34.428;-119.710;2022-09-25T09:58:36;101258.26;;;22.30;64.49
40570;BME280;26270;34.428;-119.710;2022-09-25T10:01:07;101255.07;;;22.54;64.37
40570;BME280;26270;34.428;-119.710;2022-09-25T10:03:38;101251.55;;;22.35;64.78
40570;BME280;26270;34.428;-119.710;2022-09-25T10:06:10;101245.61;;;22.36;64.92
40570;BME280;26270;34.428;-119.710;2022-09-25T10:08:40;101246.65;;;22.19;64.64
40570;BME280;26270;34.428;-119.710;2022-09-25T10:11:14;101249.96;;;22.31;65.42
40570;BME280;26270;34.428;-119.710;2022-09-25T10:13:44;101247.78;;;22.18;65.32
40570;BME280;26270;34.428;-119.710;2022-09-25T10:16:15;101247.39;;;22.25;64.95
40570;BME280;26270;34.428;-119.710;2022-09-25T10:18:48;101244.78;;;22.16;65.27
40570;BME280;26270;34.428;-119.710;2022-09-25T10:21:21;101243.17;;;22.33;65.22
40570;BME280;26270;34.428;-119.710;2022-09-25T10:23:51;101240.80;;;22.31;65.11
40570;BME280;26270;34.428;-119.710;2022-09-25T10:26:26;101236.83;;;22.17;65.07
40570;BME280;26270;34.428;-119.710;2022-09-25T10:28:56;101234.72;;;22.15;65.10
40570;BME280;26270;34.428;-119.710;2022-09-25T10:31:27;101233.54;;;21.98;65.29
40570;BME280;26270;34.428;-119.710;2022-09-25T10:33:59;101227.53;;;21.97;65.61
40570;BME280;26270;34.428;-119.710;2022-09-25T10:36:33;101226.83;;;22.02;65.47
40570;BME280;26270;34.428;-119.710;2022-09-25T10:39:04;101221.77;;;22.13;65.18
40570;BME280;26270;34.428;-119.710;2022-09-25T10:41:41;101223.48;;;21.96;65.34
40570;BME280;26270;34.428;-119.710;2022-09-25T10:44:21;101222.79;;;22.11;65.35
40570;BME280;26270;34.428;-119.710;2022-09-25T10:46:50;101225.92;;;22.00;65.48
40570;BME280;26270;34.428;-119.710;2022-09-25T10:49:21;101225.88;;;22.02;65.60
40570;BME280;26270;34.428;-119.710;2022-09-25T10:52:03;101224.03;;;22.04;65.63
40570;BME280;26270;34.428;-119.710;2022-09-25T10:54:32;101219.70;;;21.90;65.76
40570;BME280;26270;34.428;-119.710;2022-09-25T10:57:12;101219.01;;;22.06;65.66
40570;BME280;26270;34.428;-119.710;2022-09-25T10:59:46;101215.59;;;22.04;65.80
40570;BME280;26270;34.428;-119.710;2022-09-25T11:02:29;101215.63;;;21.89;65.98
40570;BME280;26270;34.428;-119.710;2022-09-25T11:04:59;101215.92;;;22.02;65.70
40570;BME280;26270;34.428;-119.710;2022-09-25T11:07:28;101216.43;;;22.01;65.65
40570;BME280;26270;34.428;-119.710;2022-09-25T11:09:56;101214.32;;;22.03;65.65
40570;BME280;26270;34.428;-119.710;2022-09-25T11:12:26;101218.17;;;22.10;65.30
40570;BME280;26270;34.428;-119.710;2022-09-25T11:14:57;101215.93;;;22.07;65.38
40570;BME280;26270;34.428;-119.710;2022-09-25T11:17:32;101215.07;;;21.91;65.57
40570;BME280;26270;34.428;-119.710;2022-09-25T11:20:24;101214.78;;;21.95;65.17
40570;BME280;26270;34.428;-119.710;2022-09-25T11:22:58;101213.39;;;21.99;65.54
40570;BME280;26270;34.428;-119.710;2022-09-25T11:25:34;101214.77;;;22.03;65.56
40570;BME280;26270;34.428;-119.710;2022-09-25T11:28:10;101215.60;;;21.99;65.63
40570;BME280;26270;34.428;-119.710;2022-09-25T11:30:43;101214.24;;;22.00;65.60
40570;BME280;26270;34.428;-119.710;2022-09-25T11:33:17;101214.04;;;22.01;65.51
40570;BME280;26270;34.428;-119.710;2022-09-25T11:35:53;101215.41;;;22.09;65.88
40570;BME280;26270;34.428;-119.710;2022-09-25T11:38:31;101216.14;;;21.86;65.93
40570;BME280;26270;34.428;-119.710;2022-09-25T11:41:03;101218.30;;;21.95;66.01
40570;BME280;26270;34.428;-119.710;2022-09-25T11:43:44;101218.69;;;21.74;66.30
40570;BME280;26270;34.428;-119.710;2022-09-25T11:46:24;101217.11;;;21.69;66.41
40570;BME280;26270;34.428;-119.710;2022-09-25T11:49:02;101215.30;;;21.90;66.52
40570;BME280;26270;34.428;-119.710;2022-09-25T11:51:42;101213.82;;;21.95;66.59
40570;BME280;26270;34.428;-119.710;2022-09-25T11:54:22;101213.55;;;21.86;67.25
40570;BME280;26270;34.428;-119.710;2022-09-25T11:56:58;101213.87;;;21.92;66.59
40570;BME280;26270;34.428;-119.710;2022-09-25T11:59:41;101213.39;;;21.89;66.73
40570;BME280;26270;34.428;-119.710;2022-09-25T12:02:19;101210.54;;;21.79;66.68
40570;BME280;26270;34.428;-119.710;2022-09-25T12:05:10;101213.29;;;21.81;66.61
40570;BME280;26270;34.428;-119.710;2022-09-25T12:07:57;101214.18;;;21.86;66.56
40570;BME280;26270;34.428;-119.710;2022-09-25T12:10:40;101209.10;;;21.92;66.62
40570;BME280;26270;34.428;-119.710;2022-09-25T12:13:20;101208.80;;;21.88;66.91
40570;BME280;26270;34.428;-119.710;2022-09-25T12:15:57;101207.26;;;21.79;67.07
40570;BME280;26270;34.428;-119.710;2022-09-25T12:18:47;101208.39;;;22.03;66.62
40570;BME280;26270;34.428;-119.710;2022-09-25T12:21:23;101210.54;;;21.91;66.68
40570;BME280;26270;34.428;-119.710;2022-09-25T12:24:01;101214.31;;;21.92;66.70
40570;BME280;26270;34.428;-119.710;2022-09-25T12:26:37;101215.59;;;21.87;66.33
40570;BME280;26270;34.428;-119.710;2022-09-25T12:29:20;101219.55;;;21.91;66.74
40570;BME280;26270;34.428;-119.710;2022-09-25T12:31:56;101220.67;;;21.72;66.70
40570;BME280;26270;34.428;-119.710;2022-09-25T12:34:38;101219.46;;;21.68;67.03
40570;BME280;26270;34.428;-119.710;2022-09-25T12:37:15;101219.77;;;21.70;67.10
40570;BME280;26270;34.428;-119.710;2022-09-25T12:39:48;101219.81;;;21.65;67.08
40570;BME280;26270;34.428;-119.710;2022-09-25T12:42:23;101220.74;;;21.63;66.80
40570;BME280;26270;34.428;-119.710;2022-09-25T12:44:56;101215.46;;;21.60;67.29
40570;BME280;26270;34.428;-119.710;2022-09-25T12:47:30;101210.23;;;21.52;68.20
40570;BME280;26270;34.428;-119.710;2022-09-25T12:50:06;101210.84;;;21.55;67.60